KBTR/BTR METAR and TAF weather

Enter ICAO airport designator
Station Type Date Time Source
KBTR METAR 2019/08/24 19:53 UTC NOAA

KBTR 241953Z 11005KT 7SM -RA BKN110 24/22 A2998 RMK AO2 PK WND 16034/1900 LTG DSNT N AND NW RAB1854 TSB02E37B38E53 SLP151 P0023 T02390222


Station Type Date Time Source
KBTR Decoded METAR 2019/08/24 19:53 UTC NOAA

Station name not available
Aug 24, 2019 - 03:53 PM EDT / 2019.08.24 1953 UTC
Wind: from the ESE (110 degrees) at 6 MPH (5 KT):0
Visibility: 7 mile(s):0
Sky conditions: mostly cloudy
Weather: light rain; Lightning observed
Precipitation last hour: 0.23 inches
Temperature: 75.0 F (23.9 C)
Dew Point: 72.0 F (22.2 C)
Relative Humidity: 90%
Pressure (altimeter): 29.98 in. Hg (1015 hPa)
ob: KBTR 241953Z 11005KT 7SM -RA BKN110 24/22 A2998 RMK AO2 PK WND 16034/1900 LTG DSNT N AND NW RAB1854 TSB02E37B38E53 SLP151 P0023 T02390222
cycle: 20

Station Type Date Time Source
KBTR TAF 2019/08/24 18:45 UTC NOAA

TAF KBTR 241741Z 2418/2518 VRB03KT P6SM BKN100
TEMPO 2418/2421 VRB15KT 1SM TSRA BR BKN030CB
FM242100 20007KT P6SM -SHRA SCT030 OVC090
TEMPO 2421/2424 4SM TSRA BKN030CB
FM250000 VRB04KT P6SM SCT020 OVC110
FM250600 00000KT P6SM SCT035 OVC250
FM251600 17005KT P6SM SCT020 OVC045

Example: see airport list